sensor_id;sensor_type;location;lat;lon;timestamp;P1;durP1;ratioP1;P2;durP2;ratioP2
47555;SDS011;33291;46.222;26.460;2023-05-10T00:00:31;10.10;;;3.60;;
47555;SDS011;33291;46.222;26.460;2023-05-10T00:02:56;5.68;;;3.13;;
47555;SDS011;33291;46.222;26.460;2023-05-10T00:05:22;9.02;;;2.50;;
47555;SDS011;33291;46.222;26.460;2023-05-10T00:07:47;5.95;;;2.70;;
47555;SDS011;33291;46.222;26.460;2023-05-10T00:10:13;7.82;;;3.42;;
47555;SDS011;33291;46.222;26.460;2023-05-10T00:12:38;9.73;;;3.50;;
47555;SDS011;33291;46.222;26.460;2023-05-10T00:15:04;3.70;;;2.55;;
47555;SDS011;33291;46.222;26.460;2023-05-10T00:17:30;11.38;;;3.20;;
47555;SDS011;33291;46.222;26.460;2023-05-10T00:19:56;8.20;;;3.05;;
47555;SDS011;33291;46.222;26.460;2023-05-10T00:22:21;4.65;;;2.90;;
47555;SDS011;33291;46.222;26.460;2023-05-10T00:24:47;4.03;;;2.60;;
47555;SDS011;33291;46.222;26.460;2023-05-10T00:27:12;5.80;;;2.85;;
47555;SDS011;33291;46.222;26.460;2023-05-10T00:29:38;4.03;;;2.55;;
47555;SDS011;33291;46.222;26.460;2023-05-10T00:32:03;8.43;;;2.67;;
47555;SDS011;33291;46.222;26.460;2023-05-10T00:34:29;7.53;;;2.67;;
47555;SDS011;33291;46.222;26.460;2023-05-10T00:36:55;5.55;;;2.33;;
47555;SDS011;33291;46.222;26.460;2023-05-10T00:39:21;4.30;;;2.30;;
47555;SDS011;33291;46.222;26.460;2023-05-10T00:41:46;7.10;;;2.38;;
47555;SDS011;33291;46.222;26.460;2023-05-10T00:44:12;4.60;;;2.58;;
47555;SDS011;33291;46.222;26.460;2023-05-10T00:46:37;6.68;;;2.83;;
47555;SDS011;33291;46.222;26.460;2023-05-10T00:49:03;8.63;;;3.17;;
47555;SDS011;33291;46.222;26.460;2023-05-10T00:51:29;3.53;;;2.50;;
47555;SDS011;33291;46.222;26.460;2023-05-10T00:53:56;6.13;;;2.92;;
47555;SDS011;33291;46.222;26.460;2023-05-10T00:56:22;10.23;;;2.65;;
47555;SDS011;33291;46.222;26.460;2023-05-10T00:58:49;8.82;;;2.78;;
47555;SDS011;33291;46.222;26.460;2023-05-10T01:01:14;3.80;;;2.40;;
47555;SDS011;33291;46.222;26.460;2023-05-10T01:03:40;5.70;;;2.42;;
47555;SDS011;33291;46.222;26.460;2023-05-10T01:06:06;5.88;;;2.72;;
47555;SDS011;33291;46.222;26.460;2023-05-10T01:08:32;4.20;;;2.78;;
47555;SDS011;33291;46.222;26.460;2023-05-10T01:10:58;5.47;;;2.67;;
47555;SDS011;33291;46.222;26.460;2023-05-10T01:13:34;5.30;;;2.92;;
47555;SDS011;33291;46.222;26.460;2023-05-10T01:16:03;5.55;;;2.90;;
47555;SDS011;33291;46.222;26.460;2023-05-10T01:18:38;5.05;;;2.67;;
47555;SDS011;33291;46.222;26.460;2023-05-10T01:26:59;3.40;;;2.30;;
47555;SDS011;33291;46.222;26.460;2023-05-10T01:29:44;7.13;;;2.60;;
47555;SDS011;33291;46.222;26.460;2023-05-10T01:35:26;7.93;;;2.92;;
47555;SDS011;33291;46.222;26.460;2023-05-10T01:38:19;8.98;;;2.35;;
47555;SDS011;33291;46.222;26.460;2023-05-10T01:41:13;4.78;;;2.45;;
47555;SDS011;33291;46.222;26.460;2023-05-10T01:43:45;6.75;;;2.72;;
47555;SDS011;33291;46.222;26.460;2023-05-10T01:46:20;4.22;;;2.42;;
47555;SDS011;33291;46.222;26.460;2023-05-10T01:49:00;4.78;;;2.58;;
47555;SDS011;33291;46.222;26.460;2023-05-10T01:51:29;9.65;;;4.07;;
47555;SDS011;33291;46.222;26.460;2023-05-10T01:54:04;5.22;;;2.58;;
47555;SDS011;33291;46.222;26.460;2023-05-10T01:56:32;6.55;;;2.53;;
47555;SDS011;33291;46.222;26.460;2023-05-10T01:58:59;3.78;;;2.55;;
47555;SDS011;33291;46.222;26.460;2023-05-10T02:01:29;3.75;;;2.33;;
47555;SDS011;33291;46.222;26.460;2023-05-10T02:03:55;4.82;;;2.60;;
47555;SDS011;33291;46.222;26.460;2023-05-10T02:06:23;6.85;;;2.47;;
47555;SDS011;33291;46.222;26.460;2023-05-10T02:08:49;6.63;;;2.55;;
47555;SDS011;33291;46.222;26.460;2023-05-10T02:11:17;7.93;;;2.70;;
47555;SDS011;33291;46.222;26.460;2023-05-10T02:13:44;2.88;;;2.28;;
47555;SDS011;33291;46.222;26.460;2023-05-10T02:16:12;7.65;;;2.33;;
47555;SDS011;33291;46.222;26.460;2023-05-10T02:18:39;7.47;;;2.70;;
47555;SDS011;33291;46.222;26.460;2023-05-10T02:21:06;5.25;;;2.85;;
47555;SDS011;33291;46.222;26.460;2023-05-10T02:23:35;6.72;;;2.47;;
47555;SDS011;33291;46.222;26.460;2023-05-10T02:26:02;3.47;;;2.00;;
47555;SDS011;33291;46.222;26.460;2023-05-10T02:28:30;3.60;;;2.47;;
47555;SDS011;33291;46.222;26.460;2023-05-10T02:30:58;4.47;;;2.35;;
47555;SDS011;33291;46.222;26.460;2023-05-10T02:33:24;4.35;;;2.70;;
47555;SDS011;33291;46.222;26.460;2023-05-10T02:35:51;3.00;;;2.17;;
47555;SDS011;33291;46.222;26.460;2023-05-10T02:38:18;4.53;;;2.42;;
47555;SDS011;33291;46.222;26.460;2023-05-10T02:40:45;4.68;;;2.50;;
47555;SDS011;33291;46.222;26.460;2023-05-10T02:43:13;3.45;;;2.25;;
47555;SDS011;33291;46.222;26.460;2023-05-10T02:45:41;6.05;;;2.38;;
47555;SDS011;33291;46.222;26.460;2023-05-10T02:48:11;5.38;;;2.67;;
47555;SDS011;33291;46.222;26.460;2023-05-10T02:50:37;3.95;;;2.22;;
47555;SDS011;33291;46.222;26.460;2023-05-10T02:53:10;3.55;;;2.22;;
47555;SDS011;33291;46.222;26.460;2023-05-10T02:55:40;4.25;;;2.60;;
47555;SDS011;33291;46.222;26.460;2023-05-10T02:58:08;5.72;;;2.67;;
47555;SDS011;33291;46.222;26.460;2023-05-10T03:00:34;3.72;;;2.70;;
47555;SDS011;33291;46.222;26.460;2023-05-10T03:03:01;2.58;;;2.10;;
47555;SDS011;33291;46.222;26.460;2023-05-10T03:05:27;4.45;;;2.65;;
47555;SDS011;33291;46.222;26.460;2023-05-10T03:07:52;3.25;;;2.47;;
47555;SDS011;33291;46.222;26.460;2023-05-10T03:10:18;7.22;;;2.45;;
47555;SDS011;33291;46.222;26.460;2023-05-10T03:15:22;6.43;;;2.88;;
47555;SDS011;33291;46.222;26.460;2023-05-10T03:18:04;5.88;;;2.30;;
47555;SDS011;33291;46.222;26.460;2023-05-10T03:20:36;4.05;;;2.20;;
47555;SDS011;33291;46.222;26.460;2023-05-10T03:26:05;4.30;;;2.30;;
47555;SDS011;33291;46.222;26.460;2023-05-10T03:28:33;7.47;;;2.90;;
47555;SDS011;33291;46.222;26.460;2023-05-10T03:30:59;3.45;;;2.55;;
47555;SDS011;33291;46.222;26.460;2023-05-10T03:33:25;7.95;;;2.75;;
47555;SDS011;33291;46.222;26.460;2023-05-10T03:35:51;3.72;;;2.67;;
47555;SDS011;33291;46.222;26.460;2023-05-10T03:38:16;6.93;;;2.42;;
47555;SDS011;33291;46.222;26.460;2023-05-10T03:40:42;3.97;;;2.72;;
47555;SDS011;33291;46.222;26.460;2023-05-10T03:43:07;7.25;;;4.82;;
47555;SDS011;33291;46.222;26.460;2023-05-10T03:45:33;7.60;;;3.22;;
47555;SDS011;33291;46.222;26.460;2023-05-10T03:47:58;7.03;;;2.70;;
47555;SDS011;33291;46.222;26.460;2023-05-10T03:50:24;6.78;;;3.03;;
47555;SDS011;33291;46.222;26.460;2023-05-10T03:52:50;5.63;;;3.17;;
47555;SDS011;33291;46.222;26.460;2023-05-10T03:55:15;4.90;;;2.72;;
47555;SDS011;33291;46.222;26.460;2023-05-10T03:57:41;5.70;;;2.40;;
47555;SDS011;33291;46.222;26.460;2023-05-10T04:00:06;3.75;;;2.78;;
47555;SDS011;33291;46.222;26.460;2023-05-10T04:02:33;3.42;;;2.72;;
47555;SDS011;33291;46.222;26.460;2023-05-10T04:04:58;6.00;;;2.55;;
47555;SDS011;33291;46.222;26.460;2023-05-10T04:07:24;6.20;;;2.60;;
47555;SDS011;33291;46.222;26.460;2023-05-10T04:09:49;4.15;;;2.75;;
47555;SDS011;33291;46.222;26.460;2023-05-10T04:12:15;4.85;;;2.60;;
47555;SDS011;33291;46.222;26.460;2023-05-10T04:14:40;5.32;;;3.22;;
47555;SDS011;33291;46.222;26.460;2023-05-10T04:17:06;3.10;;;2.00;;
47555;SDS011;33291;46.222;26.460;2023-05-10T04:19:31;2.90;;;2.35;;
47555;SDS011;33291;46.222;26.460;2023-05-10T04:21:57;6.53;;;2.47;;
47555;SDS011;33291;46.222;26.460;2023-05-10T04:24:23;5.95;;;2.60;;
47555;SDS011;33291;46.222;26.460;2023-05-10T04:26:50;4.63;;;2.95;;
47555;SDS011;33291;46.222;26.460;2023-05-10T04:29:16;4.97;;;2.58;;
47555;SDS011;33291;46.222;26.460;2023-05-10T04:31:42;5.93;;;3.50;;
47555;SDS011;33291;46.222;26.460;2023-05-10T04:34:07;3.70;;;2.92;;
47555;SDS011;33291;46.222;26.460;2023-05-10T04:36:33;4.35;;;2.90;;
47555;SDS011;33291;46.222;26.460;2023-05-10T04:39:00;7.05;;;3.47;;
47555;SDS011;33291;46.222;26.460;2023-05-10T04:41:27;7.25;;;2.85;;
47555;SDS011;33291;46.222;26.460;2023-05-10T04:43:53;7.40;;;3.40;;
47555;SDS011;33291;46.222;26.460;2023-05-10T04:46:18;6.45;;;3.60;;
47555;SDS011;33291;46.222;26.460;2023-05-10T04:48:44;6.13;;;3.35;;
47555;SDS011;33291;46.222;26.460;2023-05-10T04:51:09;5.38;;;2.70;;
47555;SDS011;33291;46.222;26.460;2023-05-10T04:53:35;6.28;;;3.05;;
47555;SDS011;33291;46.222;26.460;2023-05-10T04:56:00;5.95;;;2.83;;
47555;SDS011;33291;46.222;26.460;2023-05-10T04:58:26;4.70;;;3.55;;
47555;SDS011;33291;46.222;26.460;2023-05-10T05:00:51;14.38;;;2.88;;
47555;SDS011;33291;46.222;26.460;2023-05-10T05:03:17;4.50;;;3.08;;
47555;SDS011;33291;46.222;26.460;2023-05-10T05:05:43;3.78;;;2.53;;
47555;SDS011;33291;46.222;26.460;2023-05-10T05:08:09;5.93;;;2.80;;
47555;SDS011;33291;46.222;26.460;2023-05-10T05:10:34;5.45;;;2.60;;
47555;SDS011;33291;46.222;26.460;2023-05-10T05:13:00;8.10;;;3.50;;
47555;SDS011;33291;46.222;26.460;2023-05-10T05:15:25;7.40;;;3.38;;
47555;SDS011;33291;46.222;26.460;2023-05-10T05:17:51;5.85;;;2.85;;
47555;SDS011;33291;46.222;26.460;2023-05-10T05:20:17;8.65;;;3.70;;
47555;SDS011;33291;46.222;26.460;2023-05-10T05:22:43;4.18;;;3.05;;
47555;SDS011;33291;46.222;26.460;2023-05-10T05:25:09;3.47;;;2.28;;
47555;SDS011;33291;46.222;26.460;2023-05-10T05:27:36;5.05;;;2.80;;
47555;SDS011;33291;46.222;26.460;2023-05-10T05:30:02;9.85;;;3.10;;
47555;SDS011;33291;46.222;26.460;2023-05-10T05:32:28;7.78;;;2.85;;
47555;SDS011;33291;46.222;26.460;2023-05-10T05:34:53;5.50;;;2.63;;
47555;SDS011;33291;46.222;26.460;2023-05-10T05:37:19;9.20;;;3.53;;
47555;SDS011;33291;46.222;26.460;2023-05-10T05:39:46;4.15;;;2.70;;
47555;SDS011;33291;46.222;26.460;2023-05-10T05:42:12;7.00;;;2.70;;
47555;SDS011;33291;46.222;26.460;2023-05-10T05:44:38;3.28;;;2.22;;
47555;SDS011;33291;46.222;26.460;2023-05-10T05:47:04;3.95;;;2.40;;
47555;SDS011;33291;46.222;26.460;2023-05-10T05:49:30;5.88;;;2.65;;
47555;SDS011;33291;46.222;26.460;2023-05-10T05:52:02;5.20;;;2.80;;
47555;SDS011;33291;46.222;26.460;2023-05-10T05:54:29;4.53;;;2.55;;
47555;SDS011;33291;46.222;26.460;2023-05-10T05:56:59;7.95;;;2.40;;
47555;SDS011;33291;46.222;26.460;2023-05-10T05:59:25;4.30;;;2.30;;
47555;SDS011;33291;46.222;26.460;2023-05-10T06:01:51;10.48;;;2.70;;
47555;SDS011;33291;46.222;26.460;2023-05-10T06:04:17;4.18;;;2.92;;
47555;SDS011;33291;46.222;26.460;2023-05-10T06:06:43;6.70;;;2.90;;
47555;SDS011;33291;46.222;26.460;2023-05-10T06:09:08;6.25;;;3.15;;
47555;SDS011;33291;46.222;26.460;2023-05-10T06:11:34;9.45;;;2.53;;
47555;SDS011;33291;46.222;26.460;2023-05-10T06:14:00;5.50;;;2.10;;
47555;SDS011;33291;46.222;26.460;2023-05-10T06:16:27;3.38;;;2.05;;
47555;SDS011;33291;46.222;26.460;2023-05-10T06:18:52;2.50;;;1.67;;
47555;SDS011;33291;46.222;26.460;2023-05-10T06:21:18;4.40;;;1.70;;
47555;SDS011;33291;46.222;26.460;2023-05-10T06:23:44;4.05;;;2.50;;
47555;SDS011;33291;46.222;26.460;2023-05-10T06:26:09;4.18;;;2.42;;
47555;SDS011;33291;46.222;26.460;2023-05-10T06:28:35;10.70;;;3.50;;
47555;SDS011;33291;46.222;26.460;2023-05-10T06:31:03;4.35;;;2.53;;
47555;SDS011;33291;46.222;26.460;2023-05-10T06:33:29;4.50;;;3.17;;
47555;SDS011;33291;46.222;26.460;2023-05-10T06:35:55;6.07;;;4.50;;
47555;SDS011;33291;46.222;26.460;2023-05-10T06:38:20;6.30;;;3.50;;
47555;SDS011;33291;46.222;26.460;2023-05-10T06:40:46;4.35;;;2.50;;
47555;SDS011;33291;46.222;26.460;2023-05-10T06:43:11;3.55;;;2.30;;
47555;SDS011;33291;46.222;26.460;2023-05-10T06:45:37;6.00;;;2.33;;
47555;SDS011;33291;46.222;26.460;2023-05-10T06:48:02;3.90;;;2.58;;
47555;SDS011;33291;46.222;26.460;2023-05-10T06:50:28;6.05;;;2.97;;
47555;SDS011;33291;46.222;26.460;2023-05-10T06:52:53;9.25;;;4.53;;
47555;SDS011;33291;46.222;26.460;2023-05-10T06:55:20;9.90;;;4.20;;
47555;SDS011;33291;46.222;26.460;2023-05-10T06:57:46;5.95;;;2.63;;
47555;SDS011;33291;46.222;26.460;2023-05-10T07:00:12;5.18;;;2.50;;
47555;SDS011;33291;46.222;26.460;2023-05-10T07:02:38;8.25;;;2.88;;
47555;SDS011;33291;46.222;26.460;2023-05-10T07:05:04;6.22;;;2.85;;
47555;SDS011;33291;46.222;26.460;2023-05-10T07:07:30;11.02;;;2.95;;
47555;SDS011;33291;46.222;26.460;2023-05-10T07:09:56;5.60;;;2.30;;
47555;SDS011;33291;46.222;26.460;2023-05-10T07:12:22;4.55;;;2.15;;
47555;SDS011;33291;46.222;26.460;2023-05-10T07:14:48;4.80;;;2.65;;
47555;SDS011;33291;46.222;26.460;2023-05-10T07:17:13;4.88;;;2.22;;
47555;SDS011;33291;46.222;26.460;2023-05-10T07:19:39;3.72;;;1.95;;
47555;SDS011;33291;46.222;26.460;2023-05-10T07:22:04;7.53;;;2.45;;
47555;SDS011;33291;46.222;26.460;2023-05-10T07:24:30;3.38;;;1.95;;
47555;SDS011;33291;46.222;26.460;2023-05-10T07:26:57;5.47;;;2.35;;
47555;SDS011;33291;46.222;26.460;2023-05-10T07:29:22;4.88;;;2.55;;
47555;SDS011;33291;46.222;26.460;2023-05-10T07:31:48;6.15;;;2.50;;
47555;SDS011;33291;46.222;26.460;2023-05-10T07:34:13;7.55;;;2.47;;
47555;SDS011;33291;46.222;26.460;2023-05-10T07:36:38;9.45;;;2.35;;
47555;SDS011;33291;46.222;26.460;2023-05-10T07:39:04;8.05;;;2.38;;
47555;SDS011;33291;46.222;26.460;2023-05-10T07:41:30;4.60;;;1.65;;
47555;SDS011;33291;46.222;26.460;2023-05-10T07:43:55;3.75;;;2.45;;
47555;SDS011;33291;46.222;26.460;2023-05-10T07:46:21;8.10;;;2.47;;
47555;SDS011;33291;46.222;26.460;2023-05-10T07:48:46;3.95;;;2.70;;
47555;SDS011;33291;46.222;26.460;2023-05-10T07:51:12;6.47;;;2.40;;
47555;SDS011;33291;46.222;26.460;2023-05-10T07:53:37;6.32;;;2.63;;
47555;SDS011;33291;46.222;26.460;2023-05-10T07:58:51;6.45;;;3.03;;
47555;SDS011;33291;46.222;26.460;2023-05-10T08:01:17;4.40;;;2.35;;
47555;SDS011;33291;46.222;26.460;2023-05-10T08:03:42;6.18;;;2.45;;
47555;SDS011;33291;46.222;26.460;2023-05-10T08:06:08;8.35;;;2.03;;
47555;SDS011;33291;46.222;26.460;2023-05-10T08:08:33;3.17;;;1.83;;
47555;SDS011;33291;46.222;26.460;2023-05-10T08:10:59;5.10;;;2.80;;
47555;SDS011;33291;46.222;26.460;2023-05-10T08:13:24;4.03;;;2.25;;
47555;SDS011;33291;46.222;26.460;2023-05-10T08:15:50;5.63;;;2.30;;
47555;SDS011;33291;46.222;26.460;2023-05-10T08:18:17;11.13;;;2.70;;
47555;SDS011;33291;46.222;26.460;2023-05-10T08:20:43;5.88;;;2.60;;
47555;SDS011;33291;46.222;26.460;2023-05-10T08:23:09;6.88;;;2.80;;
47555;SDS011;33291;46.222;26.460;2023-05-10T08:25:34;5.95;;;3.25;;
47555;SDS011;33291;46.222;26.460;2023-05-10T08:28:00;12.25;;;2.88;;
47555;SDS011;33291;46.222;26.460;2023-05-10T08:30:25;9.50;;;2.78;;
47555;SDS011;33291;46.222;26.460;2023-05-10T08:32:51;12.10;;;2.45;;
47555;SDS011;33291;46.222;26.460;2023-05-10T08:35:16;9.18;;;3.35;;
47555;SDS011;33291;46.222;26.460;2023-05-10T08:37:41;9.27;;;4.30;;
47555;SDS011;33291;46.222;26.460;2023-05-10T08:40:07;5.80;;;2.83;;
47555;SDS011;33291;46.222;26.460;2023-05-10T08:42:36;5.22;;;2.75;;
47555;SDS011;33291;46.222;26.460;2023-05-10T08:45:06;7.20;;;3.05;;
47555;SDS011;33291;46.222;26.460;2023-05-10T08:47:32;9.23;;;3.33;;
47555;SDS011;33291;46.222;26.460;2023-05-10T08:49:59;5.05;;;3.00;;
47555;SDS011;33291;46.222;26.460;2023-05-10T08:52:25;5.70;;;2.80;;
47555;SDS011;33291;46.222;26.460;2023-05-10T08:54:52;6.28;;;2.92;;
47555;SDS011;33291;46.222;26.460;2023-05-10T08:57:18;10.23;;;3.55;;
47555;SDS011;33291;46.222;26.460;2023-05-10T08:59:44;10.23;;;2.85;;
47555;SDS011;33291;46.222;26.460;2023-05-10T09:02:10;14.20;;;2.97;;
47555;SDS011;33291;46.222;26.460;2023-05-10T09:04:38;4.55;;;2.78;;
47555;SDS011;33291;46.222;26.460;2023-05-10T09:07:03;5.35;;;3.10;;
47555;SDS011;33291;46.222;26.460;2023-05-10T09:09:29;16.10;;;2.50;;
47555;SDS011;33291;46.222;26.460;2023-05-10T09:11:56;7.07;;;2.83;;
47555;SDS011;33291;46.222;26.460;2023-05-10T09:14:22;9.15;;;3.10;;
47555;SDS011;33291;46.222;26.460;2023-05-10T09:16:48;5.93;;;2.83;;
47555;SDS011;33291;46.222;26.460;2023-05-10T09:19:14;5.78;;;2.90;;
47555;SDS011;33291;46.222;26.460;2023-05-10T09:21:40;8.02;;;2.65;;
47555;SDS011;33291;46.222;26.460;2023-05-10T09:24:06;6.45;;;2.72;;
47555;SDS011;33291;46.222;26.460;2023-05-10T09:26:33;5.35;;;2.78;;
47555;SDS011;33291;46.222;26.460;2023-05-10T09:29:00;5.78;;;3.10;;
47555;SDS011;33291;46.222;26.460;2023-05-10T09:34:28;5.28;;;2.70;;
47555;SDS011;33291;46.222;26.460;2023-05-10T09:36:59;6.03;;;2.85;;
47555;SDS011;33291;46.222;26.460;2023-05-10T09:39:36;4.07;;;2.40;;
47555;SDS011;33291;46.222;26.460;2023-05-10T09:42:04;7.68;;;2.80;;
47555;SDS011;33291;46.222;26.460;2023-05-10T09:44:31;12.85;;;3.83;;
47555;SDS011;33291;46.222;26.460;2023-05-10T09:46:58;7.20;;;2.88;;
47555;SDS011;33291;46.222;26.460;2023-05-10T09:49:24;5.75;;;2.58;;
47555;SDS011;33291;46.222;26.460;2023-05-10T09:52:00;5.22;;;3.17;;
47555;SDS011;33291;46.222;26.460;2023-05-10T09:54:27;4.47;;;2.88;;
47555;SDS011;33291;46.222;26.460;2023-05-10T09:56:53;3.35;;;2.17;;
47555;SDS011;33291;46.222;26.460;2023-05-10T09:59:18;4.75;;;2.60;;
47555;SDS011;33291;46.222;26.460;2023-05-10T10:01:49;3.88;;;2.65;;
47555;SDS011;33291;46.222;26.460;2023-05-10T10:04:15;5.07;;;2.72;;
47555;SDS011;33291;46.222;26.460;2023-05-10T10:06:41;3.30;;;2.17;;
47555;SDS011;33291;46.222;26.460;2023-05-10T10:09:06;6.90;;;2.28;;
47555;SDS011;33291;46.222;26.460;2023-05-10T10:11:34;5.53;;;2.42;;
47555;SDS011;33291;46.222;26.460;2023-05-10T10:14:03;4.60;;;2.67;;
47555;SDS011;33291;46.222;26.460;2023-05-10T10:16:30;3.75;;;2.22;;
47555;SDS011;33291;46.222;26.460;2023-05-10T10:18:56;10.63;;;2.05;;
47555;SDS011;33291;46.222;26.460;2023-05-10T10:21:22;2.83;;;1.58;;
47555;SDS011;33291;46.222;26.460;2023-05-10T10:23:48;2.95;;;1.75;;
47555;SDS011;33291;46.222;26.460;2023-05-10T10:26:14;3.83;;;1.95;;
47555;SDS011;33291;46.222;26.460;2023-05-10T10:28:57;3.83;;;1.67;;
47555;SDS011;33291;46.222;26.460;2023-05-10T10:34:27;3.47;;;1.70;;
47555;SDS011;33291;46.222;26.460;2023-05-10T10:36:54;2.67;;;1.98;;
47555;SDS011;33291;46.222;26.460;2023-05-10T10:39:21;4.57;;;2.13;;
47555;SDS011;33291;46.222;26.460;2023-05-10T10:41:53;4.00;;;2.30;;
47555;SDS011;33291;46.222;26.460;2023-05-10T10:49:34;2.83;;;1.50;;
47555;SDS011;33291;46.222;26.460;2023-05-10T10:52:27;3.20;;;1.27;;
47555;SDS011;33291;46.222;26.460;2023-05-10T10:55:07;4.50;;;1.55;;
47555;SDS011;33291;46.222;26.460;2023-05-10T10:57:45;2.05;;;1.35;;
47555;SDS011;33291;46.222;26.460;2023-05-10T11:03:12;5.25;;;1.70;;
47555;SDS011;33291;46.222;26.460;2023-05-10T11:13:27;8.95;;;1.45;;
47555;SDS011;33291;46.222;26.460;2023-05-10T11:15:53;3.40;;;1.17;;
47555;SDS011;33291;46.222;26.460;2023-05-10T11:18:19;2.03;;;1.05;;
47555;SDS011;33291;46.222;26.460;2023-05-10T11:20:51;2.92;;;1.25;;
47555;SDS011;33291;46.222;26.460;2023-05-10T11:23:20;3.00;;;1.40;;
47555;SDS011;33291;46.222;26.460;2023-05-10T11:25:46;2.35;;;1.17;;
47555;SDS011;33291;46.222;26.460;2023-05-10T11:28:13;4.82;;;1.55;;
47555;SDS011;33291;46.222;26.460;2023-05-10T11:30:40;4.90;;;1.45;;
47555;SDS011;33291;46.222;26.460;2023-05-10T11:33:07;3.70;;;1.63;;
47555;SDS011;33291;46.222;26.460;2023-05-10T11:35:39;4.32;;;1.75;;
47555;SDS011;33291;46.222;26.460;2023-05-10T11:38:09;4.40;;;1.63;;
47555;SDS011;33291;46.222;26.460;2023-05-10T11:40:36;1.65;;;1.27;;
47555;SDS011;33291;46.222;26.460;2023-05-10T11:43:02;12.43;;;2.08;;
47555;SDS011;33291;46.222;26.460;2023-05-10T11:45:29;3.70;;;1.85;;
47555;SDS011;33291;46.222;26.460;2023-05-10T11:47:57;4.93;;;1.50;;
47555;SDS011;33291;46.222;26.460;2023-05-10T11:50:23;3.00;;;1.48;;
47555;SDS011;33291;46.222;26.460;2023-05-10T11:52:53;9.52;;;1.63;;
47555;SDS011;33291;46.222;26.460;2023-05-10T11:55:19;3.25;;;1.73;;
47555;SDS011;33291;46.222;26.460;2023-05-10T11:57:45;7.13;;;1.70;;
47555;SDS011;33291;46.222;26.460;2023-05-10T12:00:11;2.90;;;1.38;;
47555;SDS011;33291;46.222;26.460;2023-05-10T12:02:38;6.95;;;1.40;;
47555;SDS011;33291;46.222;26.460;2023-05-10T12:05:04;3.88;;;1.70;;
47555;SDS011;33291;46.222;26.460;2023-05-10T12:07:30;1.88;;;1.25;;
47555;SDS011;33291;46.222;26.460;2023-05-10T12:10:03;3.95;;;1.42;;
47555;SDS011;33291;46.222;26.460;2023-05-10T12:15:04;2.60;;;1.25;;
47555;SDS011;33291;46.222;26.460;2023-05-10T12:17:31;6.07;;;1.52;;
47555;SDS011;33291;46.222;26.460;2023-05-10T12:20:12;2.67;;;1.10;;
47555;SDS011;33291;46.222;26.460;2023-05-10T12:22:51;5.05;;;1.20;;
47555;SDS011;33291;46.222;26.460;2023-05-10T12:25:19;4.90;;;2.33;;
47555;SDS011;33291;46.222;26.460;2023-05-10T12:27:55;9.10;;;2.03;;
47555;SDS011;33291;46.222;26.460;2023-05-10T12:30:23;3.67;;;1.42;;
47555;SDS011;33291;46.222;26.460;2023-05-10T12:33:00;10.32;;;1.55;;
47555;SDS011;33291;46.222;26.460;2023-05-10T12:35:29;5.13;;;1.08;;
47555;SDS011;33291;46.222;26.460;2023-05-10T12:37:56;2.08;;;1.35;;
47555;SDS011;33291;46.222;26.460;2023-05-10T12:40:21;2.88;;;1.40;;
47555;SDS011;33291;46.222;26.460;2023-05-10T12:42:47;4.22;;;1.80;;
47555;SDS011;33291;46.222;26.460;2023-05-10T12:45:13;4.18;;;1.10;;
47555;SDS011;33291;46.222;26.460;2023-05-10T12:47:39;2.67;;;1.60;;
47555;SDS011;33291;46.222;26.460;2023-05-10T12:50:05;1.95;;;1.10;;
47555;SDS011;33291;46.222;26.460;2023-05-10T12:52:31;4.45;;;1.38;;
47555;SDS011;33291;46.222;26.460;2023-05-10T12:54:57;4.43;;;1.38;;
47555;SDS011;33291;46.222;26.460;2023-05-10T12:57:24;4.28;;;1.48;;
47555;SDS011;33291;46.222;26.460;2023-05-10T12:59:49;3.17;;;1.50;;
47555;SDS011;33291;46.222;26.460;2023-05-10T13:02:15;5.95;;;1.83;;
47555;SDS011;33291;46.222;26.460;2023-05-10T13:04:42;6.72;;;1.65;;
47555;SDS011;33291;46.222;26.460;2023-05-10T13:07:08;3.03;;;1.73;;
47555;SDS011;33291;46.222;26.460;2023-05-10T13:09:34;7.47;;;2.20;;
47555;SDS011;33291;46.222;26.460;2023-05-10T13:12:00;4.68;;;2.53;;
47555;SDS011;33291;46.222;26.460;2023-05-10T13:14:26;5.75;;;1.80;;
47555;SDS011;33291;46.222;26.460;2023-05-10T13:16:51;7.47;;;2.35;;
47555;SDS011;33291;46.222;26.460;2023-05-10T13:19:17;1.92;;;1.20;;
47555;SDS011;33291;46.222;26.460;2023-05-10T13:21:43;7.15;;;1.77;;
47555;SDS011;33291;46.222;26.460;2023-05-10T13:24:09;11.40;;;2.55;;
47555;SDS011;33291;46.222;26.460;2023-05-10T13:26:35;6.78;;;2.13;;
47555;SDS011;33291;46.222;26.460;2023-05-10T13:29:02;13.05;;;2.33;;
47555;SDS011;33291;46.222;26.460;2023-05-10T13:31:28;8.18;;;1.67;;
47555;SDS011;33291;46.222;26.460;2023-05-10T13:33:54;4.82;;;1.75;;
47555;SDS011;33291;46.222;26.460;2023-05-10T13:36:19;4.25;;;1.40;;
47555;SDS011;33291;46.222;26.460;2023-05-10T13:38:45;7.72;;;1.85;;
47555;SDS011;33291;46.222;26.460;2023-05-10T13:41:10;5.28;;;2.63;;
47555;SDS011;33291;46.222;26.460;2023-05-10T13:43:36;8.25;;;2.90;;
47555;SDS011;33291;46.222;26.460;2023-05-10T13:46:01;8.38;;;3.65;;
47555;SDS011;33291;46.222;26.460;2023-05-10T13:48:27;7.70;;;3.38;;
47555;SDS011;33291;46.222;26.460;2023-05-10T13:50:53;6.60;;;2.72;;
47555;SDS011;33291;46.222;26.460;2023-05-10T13:53:19;6.78;;;3.08;;
47555;SDS011;33291;46.222;26.460;2023-05-10T13:55:44;4.00;;;2.22;;
47555;SDS011;33291;46.222;26.460;2023-05-10T13:58:10;4.93;;;2.50;;
47555;SDS011;33291;46.222;26.460;2023-05-10T14:00:35;5.28;;;2.80;;
47555;SDS011;33291;46.222;26.460;2023-05-10T14:03:01;5.70;;;3.13;;
47555;SDS011;33291;46.222;26.460;2023-05-10T14:05:26;6.50;;;3.05;;
47555;SDS011;33291;46.222;26.460;2023-05-10T14:07:52;4.35;;;2.50;;
47555;SDS011;33291;46.222;26.460;2023-05-10T14:10:17;9.65;;;4.28;;
47555;SDS011;33291;46.222;26.460;2023-05-10T14:12:43;9.35;;;3.45;;
47555;SDS011;33291;46.222;26.460;2023-05-10T14:15:08;9.15;;;3.10;;
47555;SDS011;33291;46.222;26.460;2023-05-10T14:17:36;5.63;;;2.80;;
47555;SDS011;33291;46.222;26.460;2023-05-10T14:20:01;3.40;;;2.35;;
47555;SDS011;33291;46.222;26.460;2023-05-10T14:22:27;6.43;;;3.15;;
47555;SDS011;33291;46.222;26.460;2023-05-10T14:24:52;6.10;;;2.67;;
47555;SDS011;33291;46.222;26.460;2023-05-10T14:27:18;8.35;;;3.00;;
47555;SDS011;33291;46.222;26.460;2023-05-10T14:29:44;6.32;;;2.85;;
47555;SDS011;33291;46.222;26.460;2023-05-10T14:32:09;6.57;;;3.40;;
47555;SDS011;33291;46.222;26.460;2023-05-10T14:34:35;10.25;;;3.40;;
47555;SDS011;33291;46.222;26.460;2023-05-10T14:37:00;10.98;;;4.38;;
47555;SDS011;33291;46.222;26.460;2023-05-10T14:39:26;9.88;;;4.32;;
47555;SDS011;33291;46.222;26.460;2023-05-10T14:41:54;9.77;;;4.15;;
47555;SDS011;33291;46.222;26.460;2023-05-10T14:44:20;8.60;;;3.13;;
47555;SDS011;33291;46.222;26.460;2023-05-10T14:46:45;4.38;;;2.65;;
47555;SDS011;33291;46.222;26.460;2023-05-10T14:49:11;6.43;;;2.97;;
47555;SDS011;33291;46.222;26.460;2023-05-10T14:51:36;4.53;;;3.25;;
47555;SDS011;33291;46.222;26.460;2023-05-10T14:54:02;6.00;;;2.92;;
47555;SDS011;33291;46.222;26.460;2023-05-10T14:56:27;7.55;;;3.13;;
47555;SDS011;33291;46.222;26.460;2023-05-10T14:58:53;3.95;;;2.30;;
47555;SDS011;33291;46.222;26.460;2023-05-10T15:01:18;5.20;;;2.40;;
47555;SDS011;33291;46.222;26.460;2023-05-10T15:03:44;8.38;;;3.97;;
47555;SDS011;33291;46.222;26.460;2023-05-10T15:06:09;7.32;;;2.95;;
47555;SDS011;33291;46.222;26.460;2023-05-10T15:08:35;7.50;;;2.80;;
47555;SDS011;33291;46.222;26.460;2023-05-10T15:11:01;8.57;;;3.38;;
47555;SDS011;33291;46.222;26.460;2023-05-10T15:13:27;7.28;;;3.13;;